createdAt,value
2022-09-24T00:02:19.630Z,4.24
2022-09-24T00:04:47.952Z,4.25
2022-09-24T00:07:16.209Z,4.26
2022-09-24T00:09:44.519Z,4.27
2022-09-24T00:12:13.454Z,4.29
2022-09-24T00:14:41.782Z,4.29
2022-09-24T00:17:10.202Z,4.28
2022-09-24T00:19:38.553Z,4.27
2022-09-24T00:22:06.856Z,4.24
2022-09-24T00:24:53.859Z,4.23
2022-09-24T00:27:22.171Z,4.22
2022-09-24T00:29:50.567Z,4.19
2022-09-24T00:32:18.819Z,4.17
2022-09-24T00:34:48.122Z,4.13
2022-09-24T00:37:16.394Z,4.09
2022-09-24T00:39:46.092Z,4.05
2022-09-24T00:42:14.443Z,4.02
2022-09-24T00:44:45.801Z,3.99
2022-09-24T00:47:42.733Z,3.96
2022-09-24T00:50:31.646Z,3.93
2022-09-24T00:53:05.231Z,3.91
2022-09-24T00:55:36.298Z,3.89
2022-09-24T00:58:07.460Z,3.87
2022-09-24T01:00:40.384Z,3.86
2022-09-24T01:03:14.672Z,3.85
2022-09-24T01:05:43.258Z,3.82
2022-09-24T01:08:14.669Z,3.77
2022-09-24T01:11:11.377Z,3.72
2022-09-24T01:14:11.888Z,3.69
2022-09-24T01:17:01.942Z,3.65
2022-09-24T01:19:56.482Z,3.61
2022-09-24T01:22:36.813Z,3.59
2022-09-24T01:25:16.843Z,3.57
2022-09-24T01:27:53.259Z,3.56
2022-09-24T01:30:21.643Z,3.55
2022-09-24T01:32:59.812Z,3.54
2022-09-24T01:35:45.618Z,3.55
2022-09-24T01:38:21.791Z,3.53
2022-09-24T01:40:51.921Z,3.50
2022-09-24T01:43:23.876Z,3.47
2022-09-24T01:45:52.431Z,3.46
2022-09-24T01:48:22.055Z,3.46
2022-09-24T01:51:23.122Z,3.46
2022-09-24T01:54:04.362Z,3.47
2022-09-24T01:57:13.166Z,3.47
2022-09-24T01:59:55.463Z,3.47
2022-09-24T02:02:45.859Z,3.47
2022-09-24T02:05:30.000Z,3.48
2022-09-24T02:08:21.204Z,3.49
2022-09-24T02:11:15.069Z,3.51
2022-09-24T02:14:02.296Z,3.51
2022-09-24T02:16:47.915Z,3.49
2022-09-24T02:19:19.123Z,3.48
2022-09-24T02:21:48.559Z,3.45
2022-09-24T02:24:25.000Z,3.45
2022-09-24T02:26:55.417Z,3.45
2022-09-24T02:29:23.703Z,3.43
2022-09-24T02:31:56.433Z,3.42
2022-09-24T02:34:34.700Z,3.39
2022-09-24T02:37:10.061Z,3.35
2022-09-24T02:39:38.553Z,3.33
2022-09-24T02:42:09.517Z,3.30
2022-09-24T02:44:37.828Z,3.29
2022-09-24T02:47:07.414Z,3.27
2022-09-24T02:49:36.337Z,3.25
2022-09-24T02:52:05.002Z,3.26
2022-09-24T02:54:33.477Z,3.25
2022-09-24T02:57:02.071Z,3.24
2022-09-24T02:59:30.504Z,3.21
2022-09-24T03:01:58.876Z,3.19
2022-09-24T03:04:29.323Z,3.17
2022-09-24T03:06:57.850Z,3.15
2022-09-24T03:09:26.210Z,3.14
2022-09-24T03:11:54.625Z,3.13
2022-09-24T03:14:22.963Z,3.11
2022-09-24T03:16:51.193Z,3.09
2022-09-24T03:19:19.574Z,3.08
2022-09-24T03:21:47.990Z,3.09
2022-09-24T03:24:16.204Z,3.09
2022-09-24T03:26:45.655Z,3.09
2022-09-24T03:29:14.020Z,3.10
2022-09-24T03:31:42.347Z,3.11
2022-09-24T03:34:10.649Z,3.13
2022-09-24T03:36:39.510Z,3.13
2022-09-24T03:39:07.780Z,3.12
2022-09-24T03:41:36.047Z,3.10
2022-09-24T03:44:04.447Z,3.07
2022-09-24T03:46:32.847Z,3.05
2022-09-24T03:49:01.157Z,3.05
2022-09-24T03:51:29.447Z,3.07
2022-09-24T03:53:57.711Z,3.09
2022-09-24T03:56:26.002Z,3.05
2022-09-24T03:58:55.135Z,3.02
2022-09-24T04:01:23.517Z,2.99
2022-09-24T04:03:51.809Z,2.97
2022-09-24T04:06:25.471Z,2.96
2022-09-24T04:08:54.633Z,2.95
2022-09-24T04:11:24.216Z,2.94
2022-09-24T04:13:53.759Z,2.93
2022-09-24T04:16:22.262Z,2.93
2022-09-24T04:18:51.310Z,2.91
2022-09-24T04:21:19.798Z,2.91
2022-09-24T04:23:48.252Z,2.91
2022-09-24T04:26:17.346Z,2.89
2022-09-24T04:28:45.670Z,2.88
2022-09-24T04:31:13.954Z,2.87
2022-09-24T04:33:42.363Z,2.86
2022-09-24T04:36:10.630Z,2.86
2022-09-24T04:38:38.894Z,2.88
2022-09-24T04:41:08.684Z,2.91
2022-09-24T04:43:37.232Z,2.94
2022-09-24T04:46:06.497Z,2.99
2022-09-24T04:48:38.445Z,3.06
2022-09-24T04:51:08.374Z,3.11
2022-09-24T04:53:38.018Z,3.17
2022-09-24T04:56:11.533Z,3.24
2022-09-24T04:58:40.316Z,3.32
2022-09-24T05:01:09.602Z,3.40
2022-09-24T05:03:37.837Z,3.46
2022-09-24T05:06:06.274Z,3.51
2022-09-24T05:08:34.514Z,3.57
2022-09-24T05:11:03.384Z,3.64
2022-09-24T05:13:31.722Z,3.73
2022-09-24T05:16:01.425Z,3.84
2022-09-24T05:18:29.704Z,3.91
2022-09-24T05:20:58.254Z,4.02
2022-09-24T05:23:26.546Z,4.12
2022-09-24T05:26:13.399Z,4.21
2022-09-24T05:28:43.083Z,4.31
2022-09-24T05:31:11.642Z,4.40
2022-09-24T05:33:40.029Z,4.48
2022-09-24T05:36:10.929Z,4.58
2022-09-24T05:38:44.008Z,4.71
2022-09-24T05:41:12.312Z,4.83
2022-09-24T05:43:41.457Z,4.92
2022-09-24T05:46:09.782Z,5.01
2022-09-24T05:48:38.223Z,5.09
2022-09-24T05:51:07.281Z,5.17
2022-09-24T05:53:36.236Z,5.25
2022-09-24T05:56:04.570Z,5.32
2022-09-24T05:58:33.142Z,5.37
2022-09-24T06:01:02.441Z,5.43
2022-09-24T06:03:31.943Z,5.50
2022-09-24T06:06:02.465Z,5.60
2022-09-24T06:08:35.883Z,5.72
2022-09-24T06:11:06.855Z,5.84
2022-09-24T06:13:35.490Z,5.98
2022-09-24T06:16:07.867Z,6.11
2022-09-24T06:18:40.350Z,6.24
2022-09-24T06:21:12.657Z,6.40
2022-09-24T06:23:42.270Z,6.55
2022-09-24T06:26:12.590Z,6.71
2022-09-24T06:28:41.734Z,6.89
2022-09-24T06:31:12.257Z,7.07
2022-09-24T06:33:41.241Z,7.26
2022-09-24T06:36:10.520Z,7.44
2022-09-24T06:38:42.124Z,7.61
2022-09-24T06:41:10.456Z,7.77
2022-09-24T06:43:38.775Z,7.91
2022-09-24T06:46:07.194Z,8.04
2022-09-24T06:48:38.484Z,8.17
2022-09-24T06:51:08.059Z,8.34
2022-09-24T06:53:36.478Z,8.54
2022-09-24T06:56:05.109Z,8.77
2022-09-24T06:58:36.504Z,8.97
2022-09-24T07:01:05.096Z,9.17
2022-09-24T07:03:34.683Z,9.37
2022-09-24T07:06:05.948Z,9.56
2022-09-24T07:08:34.973Z,9.74
2022-09-24T07:11:03.269Z,9.90
2022-09-24T07:13:35.791Z,10.05
2022-09-24T07:16:04.218Z,10.20
2022-09-24T07:18:32.584Z,10.34
2022-09-24T07:21:00.890Z,10.45
2022-09-24T07:23:29.223Z,10.57
2022-09-24T07:25:58.077Z,10.71
2022-09-24T07:28:26.569Z,10.88
2022-09-24T07:30:59.487Z,11.02
2022-09-24T07:33:28.412Z,11.13
2022-09-24T07:35:56.763Z,11.26
2022-09-24T07:38:25.274Z,11.38
2022-09-24T07:40:59.340Z,11.53
2022-09-24T07:43:28.279Z,11.65
2022-09-24T07:45:57.210Z,11.75
2022-09-24T07:48:25.594Z,11.84
2022-09-24T07:50:53.922Z,11.89
2022-09-24T07:53:22.158Z,11.93
2022-09-24T07:55:50.475Z,12.01
2022-09-24T07:58:19.484Z,12.13
2022-09-24T08:00:47.806Z,12.23
2022-09-24T08:03:16.105Z,12.36
2022-09-24T08:05:45.940Z,12.50
2022-09-24T08:08:15.074Z,12.64
2022-09-24T08:10:43.689Z,12.80
2022-09-24T08:13:12.339Z,12.95
2022-09-24T08:15:41.155Z,13.09
2022-09-24T08:18:10.015Z,13.22
2022-09-24T08:20:39.167Z,13.35
2022-09-24T08:23:12.960Z,13.49
2022-09-24T08:25:41.300Z,13.62
2022-09-24T08:28:13.137Z,13.82
2022-09-24T08:30:41.545Z,14.03
2022-09-24T08:33:11.659Z,14.14
2022-09-24T08:35:40.654Z,14.30
2022-09-24T08:38:09.830Z,14.41
2022-09-24T08:40:50.293Z,14.52
2022-09-24T08:43:42.187Z,14.60
2022-09-24T08:46:49.140Z,14.75
2022-09-24T08:49:26.200Z,14.97
2022-09-24T08:52:25.673Z,15.14
2022-09-24T08:54:56.965Z,15.32
2022-09-24T08:57:27.499Z,15.48
2022-09-24T08:59:55.902Z,15.62
2022-09-24T09:02:35.381Z,15.68
2022-09-24T09:05:10.157Z,15.78
2022-09-24T09:08:46.758Z,15.91
2022-09-24T09:11:09.441Z,16.05
2022-09-24T09:13:47.816Z,16.11
2022-09-24T09:16:28.157Z,16.17
2022-09-24T09:19:04.972Z,16.27
2022-09-24T09:21:46.965Z,16.33
2022-09-24T09:24:27.342Z,16.35
2022-09-24T09:26:57.119Z,16.44
2022-09-24T09:29:28.496Z,16.50
2022-09-24T09:32:17.155Z,16.55
2022-09-24T09:35:12.439Z,16.63
2022-09-24T09:38:07.556Z,16.73
2022-09-24T09:40:52.325Z,16.89
2022-09-24T09:43:20.849Z,17.03
2022-09-24T09:45:58.270Z,17.10
2022-09-24T09:48:31.830Z,17.16
2022-09-24T09:51:05.585Z,17.24
2022-09-24T09:53:34.176Z,17.24
2022-09-24T09:56:06.720Z,17.25
2022-09-24T09:58:39.674Z,17.28
2022-09-24T10:01:09.799Z,17.33
2022-09-24T10:03:47.057Z,17.42
2022-09-24T10:06:27.835Z,17.64
2022-09-24T10:09:08.500Z,17.84
2022-09-24T10:11:36.979Z,17.98
2022-09-24T10:14:10.181Z,18.12
2022-09-24T10:16:41.364Z,18.19
2022-09-24T10:19:37.020Z,18.22
2022-09-24T10:22:21.864Z,18.20
2022-09-24T10:24:50.888Z,18.19
2022-09-24T10:27:37.583Z,18.22
2022-09-24T10:30:33.645Z,18.26
2022-09-24T10:33:09.224Z,18.48
2022-09-24T10:35:39.189Z,18.71
2022-09-24T10:38:25.589Z,18.89
2022-09-24T10:40:54.524Z,19.04
2022-09-24T10:43:23.035Z,19.16
2022-09-24T10:46:23.225Z,19.20
2022-09-24T10:49:24.202Z,19.22
2022-09-24T10:52:23.691Z,19.28
2022-09-24T10:55:18.400Z,19.32
2022-09-24T10:58:05.330Z,19.46
2022-09-24T11:00:46.603Z,19.51
2022-09-24T11:03:33.054Z,19.54
2022-09-24T11:06:20.380Z,19.55
2022-09-24T11:09:24.354Z,19.60
2022-09-24T11:12:23.787Z,19.55
2022-09-24T11:15:29.623Z,19.51
2022-09-24T11:18:10.449Z,19.52
2022-09-24T11:20:50.405Z,19.48
2022-09-24T11:23:45.327Z,19.39
2022-09-24T11:26:16.629Z,19.44
2022-09-24T11:29:17.195Z,19.45
2022-09-24T11:32:17.902Z,19.43
2022-09-24T11:35:44.587Z,19.37
2022-09-24T11:38:20.419Z,19.33
2022-09-24T11:41:04.975Z,19.33
2022-09-24T11:47:21.943Z,19.54
2022-09-24T11:50:12.426Z,19.55
2022-09-24T11:52:50.564Z,19.61
2022-09-24T11:55:34.779Z,19.62
2022-09-24T11:58:44.067Z,19.59
2022-09-24T12:01:25.474Z,19.51
2022-09-24T12:04:12.319Z,19.38
2022-09-24T12:06:54.565Z,19.24
2022-09-24T12:09:36.385Z,19.18
2022-09-24T12:12:13.070Z,19.18
2022-09-24T12:15:26.302Z,19.21
2022-09-24T12:18:09.479Z,19.24
2022-09-24T12:20:50.719Z,19.31
2022-09-24T12:23:28.013Z,19.39
2022-09-24T12:26:00.040Z,19.44
2022-09-24T12:29:06.083Z,19.45
2022-09-24T12:32:13.375Z,19.53
2022-09-24T12:34:51.272Z,19.65
2022-09-24T12:37:29.243Z,19.78
2022-09-24T12:40:03.644Z,19.89
2022-09-24T12:42:39.267Z,19.99
2022-09-24T12:45:16.878Z,19.90
2022-09-24T12:47:57.238Z,19.62
2022-09-24T12:50:35.760Z,19.45
2022-09-24T12:53:28.035Z,19.31
2022-09-24T12:56:01.274Z,19.16
2022-09-24T12:58:38.908Z,19.04
2022-09-24T13:01:25.823Z,19.01
2022-09-24T13:04:06.044Z,18.97
2022-09-24T13:06:38.016Z,18.88
2022-09-24T13:09:42.434Z,18.87
2022-09-24T13:12:17.996Z,18.90
2022-09-24T13:15:04.445Z,19.08
2022-09-24T13:17:34.916Z,19.16
2022-09-24T13:20:09.467Z,19.20
2022-09-24T13:22:38.179Z,19.08
2022-09-24T13:25:22.847Z,18.90
2022-09-24T13:28:03.392Z,18.64
2022-09-24T13:30:40.741Z,18.40
2022-09-24T13:33:09.957Z,18.18
2022-09-24T13:36:03.597Z,18.01
2022-09-24T13:38:44.192Z,17.88
2022-09-24T13:41:24.816Z,17.84
2022-09-24T13:44:03.674Z,17.72
2022-09-24T13:46:37.095Z,17.60
2022-09-24T13:49:12.500Z,17.55
2022-09-24T13:51:44.896Z,17.52
2022-09-24T13:54:37.271Z,17.44
2022-09-24T13:57:20.357Z,17.33
2022-09-24T14:00:20.374Z,17.32
2022-09-24T14:03:16.851Z,17.38
2022-09-24T14:05:48.652Z,17.33
2022-09-24T14:08:22.533Z,17.27
2022-09-24T14:10:51.400Z,17.23
2022-09-24T14:13:26.863Z,17.11
2022-09-24T14:15:58.857Z,16.97
2022-09-24T14:18:29.313Z,16.85
2022-09-24T14:21:28.065Z,16.76
2022-09-24T14:24:05.512Z,16.68
2022-09-24T14:26:52.131Z,16.61
2022-09-24T14:29:41.629Z,16.56
2022-09-24T14:32:30.132Z,16.53
2022-09-24T14:35:06.958Z,16.49
2022-09-24T14:37:41.097Z,16.47
2022-09-24T14:40:15.708Z,16.44
2022-09-24T14:42:46.579Z,16.40
2022-09-24T14:45:22.735Z,16.38
2022-09-24T14:48:31.169Z,16.32
2022-09-24T14:51:00.333Z,16.25
2022-09-24T14:53:34.355Z,16.21
2022-09-24T14:56:28.012Z,16.17
2022-09-24T14:58:56.914Z,16.14
2022-09-24T15:01:32.754Z,16.10
2022-09-24T15:04:04.892Z,16.08
2022-09-24T15:06:37.192Z,16.06
2022-09-24T15:09:28.944Z,16.02
2022-09-24T15:12:18.111Z,16.00
2022-09-24T15:15:27.924Z,15.99
2022-09-24T15:17:56.660Z,15.99
2022-09-24T15:20:25.123Z,15.97
2022-09-24T15:22:53.695Z,15.99
2022-09-24T15:25:22.382Z,15.97
2022-09-24T15:27:53.061Z,15.94
2022-09-24T15:30:22.609Z,15.90
2022-09-24T15:32:52.900Z,15.86
2022-09-24T15:35:24.666Z,15.82
2022-09-24T15:37:53.259Z,15.76
2022-09-24T15:40:26.145Z,15.71
2022-09-24T15:42:54.624Z,15.68
2022-09-24T15:45:25.049Z,15.62
2022-09-24T15:47:56.474Z,15.53
2022-09-24T15:50:25.053Z,15.44
2022-09-24T15:52:59.997Z,15.40
2022-09-24T15:55:30.271Z,15.37
2022-09-24T15:57:58.570Z,15.33
2022-09-24T16:00:27.023Z,15.29
2022-09-24T16:02:57.671Z,15.22
2022-09-24T16:05:26.744Z,15.12
2022-09-24T16:07:55.371Z,15.01
2022-09-24T16:10:24.167Z,14.92
2022-09-24T16:12:52.651Z,14.80
2022-09-24T16:15:21.954Z,14.66
2022-09-24T16:17:50.384Z,14.56
2022-09-24T16:20:19.524Z,14.45
2022-09-24T16:22:48.292Z,14.32
2022-09-24T16:25:16.765Z,14.20
2022-09-24T16:27:45.181Z,14.04
2022-09-24T16:30:13.766Z,13.90
2022-09-24T16:32:42.304Z,13.75
2022-09-24T16:35:11.595Z,13.60
2022-09-24T16:37:41.383Z,13.46
2022-09-24T16:40:10.419Z,13.30
2022-09-24T16:42:39.481Z,13.11
2022-09-24T16:45:10.722Z,12.94
2022-09-24T16:47:39.031Z,12.78
2022-09-24T16:50:07.771Z,12.66
2022-09-24T16:52:36.197Z,12.53
2022-09-24T16:55:04.873Z,12.38
2022-09-24T16:57:36.732Z,12.23
2022-09-24T17:00:10.320Z,12.10
2022-09-24T17:02:39.626Z,11.97
2022-09-24T17:05:08.259Z,11.86
2022-09-24T17:07:36.617Z,11.74
2022-09-24T17:10:14.241Z,11.60
2022-09-24T17:12:50.169Z,11.46
2022-09-24T17:15:20.926Z,11.30
2022-09-24T17:17:51.145Z,11.17
2022-09-24T17:20:20.086Z,11.07
2022-09-24T17:22:50.378Z,10.97
2022-09-24T17:25:18.605Z,10.85
2022-09-24T17:27:47.100Z,10.74
2022-09-24T17:30:16.287Z,10.65
2022-09-24T17:32:44.690Z,10.55
2022-09-24T17:35:14.935Z,10.42
2022-09-24T17:37:44.493Z,10.30
2022-09-24T17:40:12.961Z,10.19
2022-09-24T17:42:46.082Z,10.08
2022-09-24T17:45:14.469Z,9.97
2022-09-24T17:47:57.947Z,9.84
2022-09-24T17:50:26.343Z,9.74
2022-09-24T17:52:54.683Z,9.67
2022-09-24T17:55:22.993Z,9.64
2022-09-24T17:57:51.331Z,9.68
2022-09-24T18:00:19.694Z,9.74
2022-09-24T18:02:48.254Z,9.79
2022-09-24T18:05:16.796Z,9.83
2022-09-24T18:07:45.601Z,9.86
2022-09-24T18:10:13.950Z,9.91
2022-09-24T18:12:42.414Z,9.94
2022-09-24T18:15:10.857Z,9.96
2022-09-24T18:17:39.229Z,9.98
2022-09-24T18:20:07.858Z,10.02
2022-09-24T18:22:36.201Z,10.06
2022-09-24T18:25:06.087Z,10.08
2022-09-24T18:27:36.857Z,10.11
2022-09-24T18:30:09.315Z,10.12
2022-09-24T18:32:40.377Z,10.13
2022-09-24T18:35:09.874Z,10.15
2022-09-24T18:37:39.022Z,10.17
2022-09-24T18:40:08.115Z,10.18
2022-09-24T18:42:36.504Z,10.19
2022-09-24T18:45:05.656Z,10.20
2022-09-24T18:47:38.622Z,10.20
2022-09-24T18:50:08.077Z,10.19
2022-09-24T18:52:36.430Z,10.17
2022-09-24T18:55:06.398Z,10.16
2022-09-24T18:57:34.840Z,10.15
2022-09-24T19:00:03.615Z,10.13
2022-09-24T19:02:32.108Z,10.11
2022-09-24T19:05:00.740Z,10.09
2022-09-24T19:07:30.762Z,10.06
2022-09-24T19:09:59.570Z,10.04
2022-09-24T19:12:30.083Z,10.02
2022-09-24T19:15:00.623Z,10.01
2022-09-24T19:17:28.998Z,9.99
2022-09-24T19:19:59.422Z,9.98
2022-09-24T19:22:30.060Z,9.97
2022-09-24T19:24:58.493Z,9.95
2022-09-24T19:27:27.450Z,9.95
2022-09-24T19:29:55.812Z,9.94
2022-09-24T19:32:24.228Z,9.92
2022-09-24T19:34:52.504Z,9.88
2022-09-24T19:37:20.820Z,9.85
2022-09-24T19:39:49.114Z,9.81
2022-09-24T19:42:18.118Z,9.79
2022-09-24T19:44:46.586Z,9.76
2022-09-24T19:47:14.822Z,9.73
2022-09-24T19:49:43.114Z,9.70
2022-09-24T19:52:11.459Z,9.66
2022-09-24T19:54:39.782Z,9.62
2022-09-24T19:57:08.102Z,9.56
2022-09-24T19:59:37.140Z,9.48
2022-09-24T20:02:05.607Z,9.39
2022-09-24T20:04:35.721Z,9.32
2022-09-24T20:07:06.101Z,9.26
2022-09-24T20:09:34.980Z,9.16
2022-09-24T20:12:04.855Z,9.06
2022-09-24T20:14:33.851Z,8.95
2022-09-24T20:17:02.459Z,8.86
2022-09-24T20:19:30.769Z,8.75
2022-09-24T20:21:59.278Z,8.67
2022-09-24T20:24:27.818Z,8.57
2022-09-24T20:27:14.779Z,8.47
2022-09-24T20:29:44.522Z,8.36
2022-09-24T20:32:16.170Z,8.27
2022-09-24T20:34:44.523Z,8.20
2022-09-24T20:37:12.826Z,8.14
2022-09-24T20:39:41.079Z,8.09
2022-09-24T20:42:09.406Z,8.05
2022-09-24T20:44:38.583Z,7.99
2022-09-24T20:47:07.041Z,7.94
2022-09-24T20:49:35.571Z,7.91
2022-09-24T20:52:05.954Z,7.89
2022-09-24T20:54:34.371Z,7.86
2022-09-24T20:57:02.727Z,7.84
2022-09-24T20:59:31.222Z,7.81
2022-09-24T21:01:59.816Z,7.82
2022-09-24T21:04:28.302Z,7.88
2022-09-24T21:06:56.656Z,7.99
2022-09-24T21:09:24.958Z,8.15
2022-09-24T21:11:54.727Z,8.31
2022-09-24T21:14:23.330Z,8.43
2022-09-24T21:16:54.526Z,8.55
2022-09-24T21:19:23.029Z,8.64
2022-09-24T21:21:51.418Z,8.71
2022-09-24T21:24:20.413Z,8.78
2022-09-24T21:26:49.374Z,8.85
2022-09-24T21:29:21.163Z,8.89
2022-09-24T21:31:49.790Z,8.95
2022-09-24T21:34:21.064Z,9.00
2022-09-24T21:36:49.575Z,9.03
2022-09-24T21:39:20.908Z,9.05
2022-09-24T21:41:55.649Z,9.05
2022-09-24T21:44:23.945Z,9.05
2022-09-24T21:46:53.087Z,9.06
2022-09-24T21:49:21.371Z,9.07
2022-09-24T21:51:50.985Z,9.06
2022-09-24T21:54:19.394Z,9.07
2022-09-24T21:56:48.551Z,9.06
2022-09-24T21:59:35.812Z,9.06
2022-09-24T22:02:04.740Z,9.06
2022-09-24T22:04:34.646Z,9.05
2022-09-24T22:07:02.977Z,9.04
2022-09-24T22:09:32.747Z,9.04
2022-09-24T22:12:04.835Z,9.06
2022-09-24T22:14:35.029Z,9.06
2022-09-24T22:17:04.293Z,9.07
2022-09-24T22:19:33.034Z,9.07
2022-09-24T22:22:01.327Z,9.08
2022-09-24T22:24:29.779Z,9.06
2022-09-24T22:26:58.082Z,9.03
2022-09-24T22:29:26.458Z,9.01
2022-09-24T22:31:54.856Z,9.02
2022-09-24T22:34:42.111Z,9.03
2022-09-24T22:37:11.063Z,9.04
2022-09-24T22:39:39.356Z,9.04
2022-09-24T22:42:07.582Z,9.03
2022-09-24T22:44:35.850Z,9.03
2022-09-24T22:47:04.180Z,9.04
2022-09-24T22:49:33.053Z,9.05
2022-09-24T22:52:01.626Z,9.04
2022-09-24T22:54:30.820Z,9.04
2022-09-24T22:56:59.058Z,9.03
2022-09-24T22:59:27.502Z,9.04
2022-09-24T23:01:55.758Z,9.05
2022-09-24T23:04:24.256Z,9.06
2022-09-24T23:06:54.799Z,9.06
2022-09-24T23:09:23.054Z,9.06
2022-09-24T23:11:51.931Z,9.05
2022-09-24T23:14:20.272Z,9.04
2022-09-24T23:16:48.658Z,9.03
2022-09-24T23:19:20.079Z,9.03
2022-09-24T23:21:49.506Z,9.02
2022-09-24T23:24:20.275Z,9.02
2022-09-24T23:26:48.599Z,9.01
2022-09-24T23:29:16.839Z,9.01
2022-09-24T23:31:45.311Z,9.01
2022-09-24T23:34:14.441Z,9.02
2022-09-24T23:36:45.515Z,9.03
2022-09-24T23:39:14.539Z,9.04
2022-09-24T23:41:42.779Z,9.05
2022-09-24T23:44:11.198Z,9.06
2022-09-24T23:46:39.627Z,9.08
2022-09-24T23:49:08.108Z,9.09
2022-09-24T23:51:36.396Z,9.11
2022-09-24T23:54:04.899Z,9.12
2022-09-24T23:56:33.663Z,9.14
2022-09-24T23:59:02.043Z,9.16
